NCAR-RAP Real-Time Weather Data

Output produced by METARs form (01 December 2020  18:06 UTC)
found at http://weather.rap.ucar.edu/surface/
 
KSHV 011656Z 20007KT 10SM CLR 12/M07 A3023 RMK AO2 SLP237 T01221067
KSHV 011556Z 16006KT 10SM CLR 08/M04 A3024 RMK AO2 SLP241 T00831044
KSHV 011456Z 18006KT 10SM CLR 04/M03 A3024 RMK AO2 SLP242 T00391033 55000
KSHV 011356Z 00000KT 10SM CLR M01/M05 A3023 RMK AO2 SLP239 T10061050
KSHV 011256Z 17004KT 10SM CLR M03/M07 A3023 RMK AO2 SLP237 T10281067
KSHV 011156Z 00000KT 10SM CLR M03/M06 A3024 RMK AO2 SLP242 T10331061 10000 21039 56007
KSHV 011056Z 00000KT 10SM CLR M03/M07 A3024 RMK AO2 SLP242 T10281067
KSHV 010956Z 00000KT 10SM CLR M03/M06 A3025 RMK AO2 SLP244 T10281061
KSHV 010856Z 00000KT 10SM CLR M02/M06 A3027 RMK AO2 SLP249 T10221061 55002
KSHV 010756Z 25003KT 10SM CLR M01/M06 A3026 RMK AO2 SLP247 T10111056
KSHV 010656Z 25005KT 10SM CLR M01/M06 A3026 RMK AO2 SLP248 T10111056
KSHV 010556Z 24004KT 10SM CLR M01/M05 A3027 RMK AO2 SLP251 T10061050 10061 21006 401221006 58000
KSHV 010456Z 24004KT 10SM CLR 02/M05 A3027 RMK AO2 SLP251 T00171050
KSHV 010356Z 24003KT 10SM CLR 02/M05 A3028 RMK AO2 SLP253 T00221050